Ride Results

Eidsvold Endurance Ride (27-05-2012)
Ride distance: 82.0 km

Outcomes - Eidsvold Endurance Ride (27-05-2012)
Division No. of Entries Retired / DNE Completed Withdrawn Ineligible V/O Percentage Completed
HW 10 - 8 - - 2 80.00%
MW 15 - 15 - - - 100.00%
LW 12 - 12 - - - 100.00%
JN 4 - 4 - - - 100.00%
Totals 41 - 39 - - 2 95.12%
Results - Eidsvold Endurance Ride (27-05-2012)
No. Rider Horse Place Time Leg Speeds Total
Km/Hr
H/R bpm
Heavyweight
41 Michael Shaw Bellabin 1 (BC) 5:16:00 17.6, 13.9 15.57 39, 40, 49 (Avg:44)
18 Peter Spottswood Glenewan Dusk 2 5:33:00 15.9, 13.7 14.77 34, 37, 43 (Avg:40)
20 Greg Garred Shannonwood Sub 3 6:25:00 14.0, 11.7 12.78 38, 40, 35 (Avg:37)
11 Alwyn Torenbeek Dalgangle 4 6:45:00 13.3, 11.1 12.15 30, 46, 48 (Avg:47)
8 Helen Moore Summer Park Douglas Explorer 5 6:53:00 12.9, 11.1 11.91 37, 42, 50 (Avg:46)
40 Steve Barlow Dunwingeri Maashhar 6 7:05:00 12.6, 10.7 11.58 30, 40, 36 (Avg:38)
17 Ben Herbert Jay 7 7:25:00 12.1, 10.1 11.06 38, 41, 47 (Avg:44)
10 Steve Swan Longrun Conaar 8 7:51:00 10.6, 10.2 10.45 31, 42, 47 (Avg:44)
2 Gavin Bartlett Beau Metabolics L2 0:00:00 14.0, 9.8 - 35, 41, 75 (Avg:58)
9 Bruce Moore Arabcrest Regal Spirit Lame L1 0:00:00 12.9 - 36, 40 (Avg:40)
Middleweight
23 Caroline Fitzgerald Lanamere Kudos 1 (BC) 4:34:00 18.8, 17.1 17.96 34, 44, 40 (Avg:42)
24 Angela Head Lanamere Nightmusic 1 4:34:00 18.8, 17.1 17.96 32, 47, 49 (Avg:48)
1 Leslie Saunders-Webb Edenfels Pegasus 3 4:39:00 36.9, 11.7 17.63 35, 35, 42 (Avg:38)
12 Brigitte Stamm Anvil 4 6:45:00 13.3, 11.1 12.15 32, 46, 50 (Avg:48)
3 Naomi Djuric Dodge 5 6:46:00 13.8, 10.8 12.12 32, 41, 50 (Avg:45)
4 Tania Sanderson Dark Century 6 6:52:00 13.2, 10.9 11.94 31, 47, 47 (Avg:47)
5 Ruth Dixon El Romero 7 6:53:00 12.4, 11.4 11.91 32, 40, 42 (Avg:41)
19 Kay Barbeler Carona 8 7:05:00 12.3, 10.9 11.58 32, 45, 42 (Avg:43)
39 Anne Barlow Sa-Har Magnolia 8 7:05:00 12.6, 10.7 11.58 31, 33, 39 (Avg:36)
16 Gabriel Ramos Kevisan Park Cascade 10 7:11:00 12.1, 10.7 11.42 35, 38, 39 (Avg:38)
36 Casey Curtis Brookleigh Felicity 11 7:51:00 10.3, 10.5 10.45 42, 49, 47 (Avg:48)
35 Caro de Boer Brookleigh Bailey 11 7:51:00 10.3, 10.5 10.45 32, 55, 50 (Avg:52)
34 Kelsey Irvine Brookleigh Andrew Johns 11 7:51:00 10.3, 10.5 10.45 38, 43, 48 (Avg:45)
30 Brook Sample Brookleigh Casanova 11 7:51:00 10.3, 10.5 10.45 30, 45, 43 (Avg:44)
32 Michael Taylor Brookleigh Ariel 11 7:51:00 9.1, 12.1 10.45 40, 42, 39 (Avg:40)
Lightweight
14 Fiona Fenech Bellarine Amigo 1 (BC) 4:11:00 19.6, 19.5 19.60 29, 44, 42 (Avg:43)
37 Ute Jordan Charaway Amici 2 4:30:00 18.8, 17.6 18.22 36, 44, 45 (Avg:44)
26 Bobbi Lochtenberg Matta Mia Dayman 2 4:30:00 18.8, 17.6 18.22 36, 44, 44 (Avg:44)
38 Janelle Taylor Glenewan Scout 2 4:30:00 18.8, 17.6 18.22 34, 37, 41 (Avg:39)
7 Sue Jones El Castano Mirada 5 6:24:00 14.1, 11.7 12.81 30, 40, 46 (Avg:43)
42 Sally Genninges Maximal Primrose 6 6:39:00 12.9, 11.7 12.33 43, 39, 48 (Avg:43)
28 Kaylea Maher Bashir 7 6:46:00 11.4, 12.7 12.12 29, 40, 45 (Avg:42)
15 Daniele Von Elsner Omah 8 6:52:00 13.2, 10.9 11.94 32, 34, 43 (Avg:38)
21 Sue Sutcliffe My Cadet 9 6:53:00 12.4, 11.4 11.91 31, 38, 42 (Avg:40)
27 Susan Kelman Jayhal Moonlight 10 6:54:00 14.1, 10.3 11.88 30, 38, 45 (Avg:41)
33 Carina Nilsson Splendacrest Adage 11 7:24:00 11.3, 10.8 11.08 37, 39, 37 (Avg:38)
31 Malin Olsson Shardell Hunter 11 7:24:00 11.3, 10.8 11.08 38, 41, 42 (Avg:41)
Junior
25 David Anderson Jnr Chantree Park Desert Prince 1 (BC) 5:25:00 14.0, 16.3 15.14 29, 35, 46 (Avg:40)
6 Jessyca Dakin Caramea Morocco 2 6:39:00 13.1, 11.6 12.33 35, 40, 46 (Avg:43)
22 Gemma Sutcliffe Talbarear Rapier 3 6:53:00 12.4, 11.4 11.91 30, 39, 40 (Avg:39)
29 Lainie Zischke Tararua Zac 4 7:20:00 11.4, 10.9 11.18 35, 40, 52 (Avg:46)